sensor_id;sensor_type;location;lat;lon;timestamp;temperature;humidity
30336;DHT22;17142;47.990;7.846;2023-04-01T00:01:18;8.20;99.90
30336;DHT22;17142;47.990;7.846;2023-04-01T00:03:44;8.10;99.90
30336;DHT22;17142;47.990;7.846;2023-04-01T00:06:15;8.00;99.90
30336;DHT22;17142;47.990;7.846;2023-04-01T00:08:43;7.90;99.90
30336;DHT22;17142;47.990;7.846;2023-04-01T00:11:10;7.80;99.90
30336;DHT22;17142;47.990;7.846;2023-04-01T00:13:38;7.70;99.90
30336;DHT22;17142;47.990;7.846;2023-04-01T00:16:04;7.60;99.90
30336;DHT22;17142;47.990;7.846;2023-04-01T00:18:31;7.60;99.90
30336;DHT22;17142;47.990;7.846;2023-04-01T00:20:59;7.50;99.90
30336;DHT22;17142;47.990;7.846;2023-04-01T00:23:25;7.50;99.90
30336;DHT22;17142;47.990;7.846;2023-04-01T00:25:51;7.40;99.90
30336;DHT22;17142;47.990;7.846;2023-04-01T00:28:20;7.50;99.90
30336;DHT22;17142;47.990;7.846;2023-04-01T00:30:48;7.50;99.90
30336;DHT22;17142;47.990;7.846;2023-04-01T00:33:13;7.50;99.90
30336;DHT22;17142;47.990;7.846;2023-04-01T00:35:39;7.50;99.90
30336;DHT22;17142;47.990;7.846;2023-04-01T00:38:05;7.50;99.90
30336;DHT22;17142;47.990;7.846;2023-04-01T00:40:46;7.50;99.90
30336;DHT22;17142;47.990;7.846;2023-04-01T00:43:17;7.50;99.90
30336;DHT22;17142;47.990;7.846;2023-04-01T00:45:49;7.50;99.90
30336;DHT22;17142;47.990;7.846;2023-04-01T00:48:28;7.60;99.90
30336;DHT22;17142;47.990;7.846;2023-04-01T00:53:30;7.60;99.90
30336;DHT22;17142;47.990;7.846;2023-04-01T00:56:05;7.70;99.90
30336;DHT22;17142;47.990;7.846;2023-04-01T00:58:35;7.70;99.90
30336;DHT22;17142;47.990;7.846;2023-04-01T01:01:02;7.80;99.90
30336;DHT22;17142;47.990;7.846;2023-04-01T01:03:33;7.80;99.90
30336;DHT22;17142;47.990;7.846;2023-04-01T01:10:59;7.90;99.90
30336;DHT22;17142;47.990;7.846;2023-04-01T01:13:31;8.00;99.90
30336;DHT22;17142;47.990;7.846;2023-04-01T01:16:33;8.00;99.90
30336;DHT22;17142;47.990;7.846;2023-04-01T01:19:29;8.10;99.90
30336;DHT22;17142;47.990;7.846;2023-04-01T01:25:30;8.00;99.90
30336;DHT22;17142;47.990;7.846;2023-04-01T01:28:40;8.00;99.90
30336;DHT22;17142;47.990;7.846;2023-04-01T01:36:37;8.10;99.90
30336;DHT22;17142;47.990;7.846;2023-04-01T01:39:08;8.10;99.90
30336;DHT22;17142;47.990;7.846;2023-04-01T01:41:39;8.10;99.90
30336;DHT22;17142;47.990;7.846;2023-04-01T01:44:08;8.20;99.90
30336;DHT22;17142;47.990;7.846;2023-04-01T01:46:40;8.20;99.90
30336;DHT22;17142;47.990;7.846;2023-04-01T01:49:08;8.30;99.90
30336;DHT22;17142;47.990;7.846;2023-04-01T01:51:35;8.30;99.90
30336;DHT22;17142;47.990;7.846;2023-04-01T01:54:04;8.30;99.90
30336;DHT22;17142;47.990;7.846;2023-04-01T01:56:30;8.30;99.90
30336;DHT22;17142;47.990;7.846;2023-04-01T01:59:03;8.40;99.90
30336;DHT22;17142;47.990;7.846;2023-04-01T02:01:34;8.40;99.90
30336;DHT22;17142;47.990;7.846;2023-04-01T02:04:01;8.50;99.90
30336;DHT22;17142;47.990;7.846;2023-04-01T02:06:29;8.50;99.90
30336;DHT22;17142;47.990;7.846;2023-04-01T02:09:04;8.50;99.90
30336;DHT22;17142;47.990;7.846;2023-04-01T02:14:14;8.50;99.90
30336;DHT22;17142;47.990;7.846;2023-04-01T02:16:51;8.50;99.90
30336;DHT22;17142;47.990;7.846;2023-04-01T02:19:20;8.50;99.90
30336;DHT22;17142;47.990;7.846;2023-04-01T02:21:50;8.40;99.90
30336;DHT22;17142;47.990;7.846;2023-04-01T02:24:18;8.40;99.90
30336;DHT22;17142;47.990;7.846;2023-04-01T02:26:49;8.50;99.90
30336;DHT22;17142;47.990;7.846;2023-04-01T02:29:18;8.40;99.90
30336;DHT22;17142;47.990;7.846;2023-04-01T02:31:48;8.40;99.90
30336;DHT22;17142;47.990;7.846;2023-04-01T02:34:15;8.40;99.90
30336;DHT22;17142;47.990;7.846;2023-04-01T02:36:41;8.30;99.90
30336;DHT22;17142;47.990;7.846;2023-04-01T02:39:07;8.30;99.90
30336;DHT22;17142;47.990;7.846;2023-04-01T02:41:40;8.20;99.90
30336;DHT22;17142;47.990;7.846;2023-04-01T02:44:06;8.10;99.90
30336;DHT22;17142;47.990;7.846;2023-04-01T02:46:35;8.00;99.90
30336;DHT22;17142;47.990;7.846;2023-04-01T02:49:00;8.00;99.90
30336;DHT22;17142;47.990;7.846;2023-04-01T02:51:26;8.00;99.90
30336;DHT22;17142;47.990;7.846;2023-04-01T02:53:52;7.90;99.90
30336;DHT22;17142;47.990;7.846;2023-04-01T02:56:20;7.80;99.90
30336;DHT22;17142;47.990;7.846;2023-04-01T02:58:49;7.80;99.90
30336;DHT22;17142;47.990;7.846;2023-04-01T03:01:14;7.70;99.90
30336;DHT22;17142;47.990;7.846;2023-04-01T03:03:40;7.70;99.90
30336;DHT22;17142;47.990;7.846;2023-04-01T03:06:08;7.60;99.90
30336;DHT22;17142;47.990;7.846;2023-04-01T03:08:34;7.60;99.90
30336;DHT22;17142;47.990;7.846;2023-04-01T03:11:02;7.60;99.90
30336;DHT22;17142;47.990;7.846;2023-04-01T03:13:28;7.60;99.90
30336;DHT22;17142;47.990;7.846;2023-04-01T03:15:54;7.60;99.90
30336;DHT22;17142;47.990;7.846;2023-04-01T03:18:22;7.60;99.90
30336;DHT22;17142;47.990;7.846;2023-04-01T03:20:47;7.60;99.90
30336;DHT22;17142;47.990;7.846;2023-04-01T03:23:13;7.60;99.90
30336;DHT22;17142;47.990;7.846;2023-04-01T03:25:41;7.60;99.90
30336;DHT22;17142;47.990;7.846;2023-04-01T03:28:07;7.50;99.90
30336;DHT22;17142;47.990;7.846;2023-04-01T03:30:32;7.50;99.90
30336;DHT22;17142;47.990;7.846;2023-04-01T03:33:01;7.50;99.90
30336;DHT22;17142;47.990;7.846;2023-04-01T03:35:28;7.40;99.90
30336;DHT22;17142;47.990;7.846;2023-04-01T03:37:56;7.40;99.90
30336;DHT22;17142;47.990;7.846;2023-04-01T03:40:24;7.40;99.90
30336;DHT22;17142;47.990;7.846;2023-04-01T03:42:51;7.30;99.90
30336;DHT22;17142;47.990;7.846;2023-04-01T03:45:18;7.20;99.90
30336;DHT22;17142;47.990;7.846;2023-04-01T03:47:43;7.20;99.90
30336;DHT22;17142;47.990;7.846;2023-04-01T03:50:11;7.20;99.90
30336;DHT22;17142;47.990;7.846;2023-04-01T03:52:37;7.20;99.90
30336;DHT22;17142;47.990;7.846;2023-04-01T03:55:03;7.20;99.90
30336;DHT22;17142;47.990;7.846;2023-04-01T03:57:33;7.10;99.90
30336;DHT22;17142;47.990;7.846;2023-04-01T04:00:01;7.10;99.90
30336;DHT22;17142;47.990;7.846;2023-04-01T04:02:27;7.00;99.90
30336;DHT22;17142;47.990;7.846;2023-04-01T04:04:57;6.90;99.90
30336;DHT22;17142;47.990;7.846;2023-04-01T04:07:25;6.90;99.90
30336;DHT22;17142;47.990;7.846;2023-04-01T04:09:51;6.90;99.90
30336;DHT22;17142;47.990;7.846;2023-04-01T04:12:18;7.00;99.90
30336;DHT22;17142;47.990;7.846;2023-04-01T04:14:44;7.00;99.90
30336;DHT22;17142;47.990;7.846;2023-04-01T04:17:10;7.10;99.90
30336;DHT22;17142;47.990;7.846;2023-04-01T04:19:43;7.20;99.90
30336;DHT22;17142;47.990;7.846;2023-04-01T04:22:09;7.20;99.90
30336;DHT22;17142;47.990;7.846;2023-04-01T04:24:35;7.20;99.90
30336;DHT22;17142;47.990;7.846;2023-04-01T04:27:01;7.30;99.90
30336;DHT22;17142;47.990;7.846;2023-04-01T04:29:27;7.20;99.90
30336;DHT22;17142;47.990;7.846;2023-04-01T04:31:53;7.20;99.90
30336;DHT22;17142;47.990;7.846;2023-04-01T04:34:21;7.20;99.90
30336;DHT22;17142;47.990;7.846;2023-04-01T04:36:48;7.30;99.90
30336;DHT22;17142;47.990;7.846;2023-04-01T04:39:17;7.30;99.90
30336;DHT22;17142;47.990;7.846;2023-04-01T04:41:43;7.30;99.90
30336;DHT22;17142;47.990;7.846;2023-04-01T04:44:11;7.30;99.90
30336;DHT22;17142;47.990;7.846;2023-04-01T04:46:39;7.30;99.90
30336;DHT22;17142;47.990;7.846;2023-04-01T04:49:12;7.40;99.90
30336;DHT22;17142;47.990;7.846;2023-04-01T04:51:37;7.30;99.90
30336;DHT22;17142;47.990;7.846;2023-04-01T04:54:06;7.40;99.90
30336;DHT22;17142;47.990;7.846;2023-04-01T04:56:32;7.40;99.90
30336;DHT22;17142;47.990;7.846;2023-04-01T04:58:58;7.40;99.90
30336;DHT22;17142;47.990;7.846;2023-04-01T05:01:27;7.40;99.90
30336;DHT22;17142;47.990;7.846;2023-04-01T05:03:55;7.40;99.90
30336;DHT22;17142;47.990;7.846;2023-04-01T05:06:23;7.40;99.90
30336;DHT22;17142;47.990;7.846;2023-04-01T05:08:50;7.50;99.90
30336;DHT22;17142;47.990;7.846;2023-04-01T05:11:19;7.60;99.90
30336;DHT22;17142;47.990;7.846;2023-04-01T05:13:46;7.60;99.90
30336;DHT22;17142;47.990;7.846;2023-04-01T05:16:20;7.70;99.90
30336;DHT22;17142;47.990;7.846;2023-04-01T05:18:46;7.70;99.90
30336;DHT22;17142;47.990;7.846;2023-04-01T05:21:12;7.70;99.90
30336;DHT22;17142;47.990;7.846;2023-04-01T05:23:38;7.70;99.90
30336;DHT22;17142;47.990;7.846;2023-04-01T05:26:05;7.70;99.90
30336;DHT22;17142;47.990;7.846;2023-04-01T05:28:31;7.80;99.90
30336;DHT22;17142;47.990;7.846;2023-04-01T05:31:02;7.80;99.90
30336;DHT22;17142;47.990;7.846;2023-04-01T05:33:30;7.90;99.90
30336;DHT22;17142;47.990;7.846;2023-04-01T05:38:34;7.90;99.90
30336;DHT22;17142;47.990;7.846;2023-04-01T05:41:01;7.90;99.90
30336;DHT22;17142;47.990;7.846;2023-04-01T05:43:29;7.90;99.90
30336;DHT22;17142;47.990;7.846;2023-04-01T05:45:56;7.90;99.90
30336;DHT22;17142;47.990;7.846;2023-04-01T05:48:23;7.90;99.90
30336;DHT22;17142;47.990;7.846;2023-04-01T05:50:52;7.90;99.90
30336;DHT22;17142;47.990;7.846;2023-04-01T05:53:20;7.90;99.90
30336;DHT22;17142;47.990;7.846;2023-04-01T05:55:48;7.90;99.90
30336;DHT22;17142;47.990;7.846;2023-04-01T05:58:13;7.90;99.90
30336;DHT22;17142;47.990;7.846;2023-04-01T06:00:39;7.90;99.90
30336;DHT22;17142;47.990;7.846;2023-04-01T06:03:05;8.00;99.90
30336;DHT22;17142;47.990;7.846;2023-04-01T06:05:39;8.00;99.90
30336;DHT22;17142;47.990;7.846;2023-04-01T06:08:13;8.10;99.90
30336;DHT22;17142;47.990;7.846;2023-04-01T06:11:29;8.20;99.90
30336;DHT22;17142;47.990;7.846;2023-04-01T06:19:51;8.30;99.90
30336;DHT22;17142;47.990;7.846;2023-04-01T06:24:51;8.30;99.90
30336;DHT22;17142;47.990;7.846;2023-04-01T06:27:35;8.30;99.90
30336;DHT22;17142;47.990;7.846;2023-04-01T06:33:06;8.40;99.90
30336;DHT22;17142;47.990;7.846;2023-04-01T06:38:46;8.50;99.90
30336;DHT22;17142;47.990;7.846;2023-04-01T06:46:42;8.60;99.90
30336;DHT22;17142;47.990;7.846;2023-04-01T06:52:15;8.80;99.90
30336;DHT22;17142;47.990;7.846;2023-04-01T06:57:52;8.80;99.90
30336;DHT22;17142;47.990;7.846;2023-04-01T07:00:46;8.90;99.90
30336;DHT22;17142;47.990;7.846;2023-04-01T07:06:03;9.10;99.90
30336;DHT22;17142;47.990;7.846;2023-04-01T07:08:29;9.10;99.90
30336;DHT22;17142;47.990;7.846;2023-04-01T07:11:02;9.10;99.90
30336;DHT22;17142;47.990;7.846;2023-04-01T07:19:06;9.40;99.90
30336;DHT22;17142;47.990;7.846;2023-04-01T07:24:10;9.50;99.90
30336;DHT22;17142;47.990;7.846;2023-04-01T07:26:39;9.60;99.90
30336;DHT22;17142;47.990;7.846;2023-04-01T07:29:12;9.70;99.90
30336;DHT22;17142;47.990;7.846;2023-04-01T07:32:00;9.70;99.90
30336;DHT22;17142;47.990;7.846;2023-04-01T07:53:38;9.70;99.90
30336;DHT22;17142;47.990;7.846;2023-04-01T07:56:25;9.70;99.90
30336;DHT22;17142;47.990;7.846;2023-04-01T08:07:10;9.90;99.90
30336;DHT22;17142;47.990;7.846;2023-04-01T08:09:44;10.10;99.90
30336;DHT22;17142;47.990;7.846;2023-04-01T08:12:21;10.20;99.90
30336;DHT22;17142;47.990;7.846;2023-04-01T08:17:59;10.30;99.90
30336;DHT22;17142;47.990;7.846;2023-04-01T08:25:40;10.30;99.90
30336;DHT22;17142;47.990;7.846;2023-04-01T08:28:26;10.30;99.90
30336;DHT22;17142;47.990;7.846;2023-04-01T08:31:18;10.20;99.90
30336;DHT22;17142;47.990;7.846;2023-04-01T08:33:47;10.20;99.90
30336;DHT22;17142;47.990;7.846;2023-04-01T08:38:59;10.20;99.90
30336;DHT22;17142;47.990;7.846;2023-04-01T08:55:47;10.80;99.90
30336;DHT22;17142;47.990;7.846;2023-04-01T09:32:21;11.20;99.90
30336;DHT22;17142;47.990;7.846;2023-04-01T09:35:14;11.20;99.90
30336;DHT22;17142;47.990;7.846;2023-04-01T09:46:10;11.50;99.90
30336;DHT22;17142;47.990;7.846;2023-04-01T09:51:52;11.60;99.90
30336;DHT22;17142;47.990;7.846;2023-04-01T10:08:43;11.50;99.90
30336;DHT22;17142;47.990;7.846;2023-04-01T10:28:34;11.40;99.90
30336;DHT22;17142;47.990;7.846;2023-04-01T10:34:13;11.50;99.90
30336;DHT22;17142;47.990;7.846;2023-04-01T10:36:56;11.50;99.90
30336;DHT22;17142;47.990;7.846;2023-04-01T11:01:21;11.80;99.90
30336;DHT22;17142;47.990;7.846;2023-04-01T11:09:49;11.90;99.90
30336;DHT22;17142;47.990;7.846;2023-04-01T11:34:53;11.50;99.90
30336;DHT22;17142;47.990;7.846;2023-04-01T11:40:22;11.40;99.90
30336;DHT22;17142;47.990;7.846;2023-04-01T11:43:14;11.30;99.90
30336;DHT22;17142;47.990;7.846;2023-04-01T11:46:07;11.30;99.90
30336;DHT22;17142;47.990;7.846;2023-04-01T11:51:20;11.40;99.90
30336;DHT22;17142;47.990;7.846;2023-04-01T11:54:16;11.40;99.90
30336;DHT22;17142;47.990;7.846;2023-04-01T12:08:33;11.40;99.90
30336;DHT22;17142;47.990;7.846;2023-04-01T12:11:22;11.40;99.90
30336;DHT22;17142;47.990;7.846;2023-04-01T12:13:59;11.40;99.90
30336;DHT22;17142;47.990;7.846;2023-04-01T12:20:10;11.50;99.90
30336;DHT22;17142;47.990;7.846;2023-04-01T12:30:08;11.70;99.90
30336;DHT22;17142;47.990;7.846;2023-04-01T12:41:09;11.90;99.90
30336;DHT22;17142;47.990;7.846;2023-04-01T12:56:57;11.80;99.90
30336;DHT22;17142;47.990;7.846;2023-04-01T13:19:05;12.10;99.90
30336;DHT22;17142;47.990;7.846;2023-04-01T13:29:28;12.20;99.90
30336;DHT22;17142;47.990;7.846;2023-04-01T13:34:52;12.30;99.90
30336;DHT22;17142;47.990;7.846;2023-04-01T13:37:47;12.30;99.90
30336;DHT22;17142;47.990;7.846;2023-04-01T13:40:35;12.40;99.90
30336;DHT22;17142;47.990;7.846;2023-04-01T13:45:49;12.40;99.90
30336;DHT22;17142;47.990;7.846;2023-04-01T14:09:54;13.60;99.90
30336;DHT22;17142;47.990;7.846;2023-04-01T14:12:31;13.70;99.90
30336;DHT22;17142;47.990;7.846;2023-04-01T14:21:23;14.10;99.90
30336;DHT22;17142;47.990;7.846;2023-04-01T14:23:58;14.10;99.90
30336;DHT22;17142;47.990;7.846;2023-04-01T14:32:30;13.80;99.90
30336;DHT22;17142;47.990;7.846;2023-04-01T14:35:21;13.40;99.90
30336;DHT22;17142;47.990;7.846;2023-04-01T14:51:29;10.80;99.90
30336;DHT22;17142;47.990;7.846;2023-04-01T14:54:00;11.00;99.90
